sensor_id;sensor_type;location;lat;lon;timestamp;pressure;altitude;pressure_sealevel;temperature;humidity
61573;BME280;47465;43.094;12.434;2023-09-12T00:00:43;98597.88;;;20.91;64.42
61573;BME280;47465;43.094;12.434;2023-09-12T00:03:09;98628.53;;;21.16;64.54
61573;BME280;47465;43.094;12.434;2023-09-12T00:05:35;98569.59;;;20.71;64.63
61573;BME280;47465;43.094;12.434;2023-09-12T00:08:02;98556.19;;;20.69;64.40
61573;BME280;47465;43.094;12.434;2023-09-12T00:10:29;98583.63;;;20.76;64.98
61573;BME280;47465;43.094;12.434;2023-09-12T00:12:56;98571.94;;;20.88;64.11
61573;BME280;47465;43.094;12.434;2023-09-12T00:15:24;98608.63;;;21.17;64.31
61573;BME280;47465;43.094;12.434;2023-09-12T00:17:50;98616.75;;;21.17;64.56
61573;BME280;47465;43.094;12.434;2023-09-12T00:20:16;98626.13;;;21.24;64.49
61573;BME280;47465;43.094;12.434;2023-09-12T00:22:42;98579.78;;;21.04;64.80
61573;BME280;47465;43.094;12.434;2023-09-12T00:25:08;98579.28;;;20.86;64.98
61573;BME280;47465;43.094;12.434;2023-09-12T00:27:34;98604.06;;;20.80;66.16
61573;BME280;47465;43.094;12.434;2023-09-12T00:30:02;98634.53;;;20.95;66.03
61573;BME280;47465;43.094;12.434;2023-09-12T00:32:28;98599.84;;;20.76;65.91
61573;BME280;47465;43.094;12.434;2023-09-12T00:34:54;98635.69;;;21.04;66.25
61573;BME280;47465;43.094;12.434;2023-09-12T00:37:20;98608.59;;;20.67;67.73
61573;BME280;47465;43.094;12.434;2023-09-12T00:39:45;98572.38;;;20.44;67.39
61573;BME280;47465;43.094;12.434;2023-09-12T00:42:13;98561.56;;;20.18;67.47
61573;BME280;47465;43.094;12.434;2023-09-12T00:44:38;98570.75;;;20.16;68.44
61573;BME280;47465;43.094;12.434;2023-09-12T00:47:06;98584.25;;;20.41;67.72
61573;BME280;47465;43.094;12.434;2023-09-12T00:49:32;98605.69;;;20.57;67.11
61573;BME280;47465;43.094;12.434;2023-09-12T00:51:59;98563.19;;;20.34;67.27
61573;BME280;47465;43.094;12.434;2023-09-12T00:54:27;98591.59;;;20.39;67.26
61573;BME280;47465;43.094;12.434;2023-09-12T00:56:53;98626.06;;;20.36;68.79
61573;BME280;47465;43.094;12.434;2023-09-12T00:59:19;98548.91;;;19.80;69.82
61573;BME280;47465;43.094;12.434;2023-09-12T01:01:46;98629.00;;;20.45;68.44
61573;BME280;47465;43.094;12.434;2023-09-12T01:04:14;98561.44;;;19.94;69.16
61573;BME280;47465;43.094;12.434;2023-09-12T01:06:40;98602.72;;;20.35;68.38
61573;BME280;47465;43.094;12.434;2023-09-12T01:09:06;98542.66;;;20.05;68.63
61573;BME280;47465;43.094;12.434;2023-09-12T01:11:33;98551.59;;;20.06;68.70
61573;BME280;47465;43.094;12.434;2023-09-12T01:14:00;98552.91;;;19.87;70.53
61573;BME280;47465;43.094;12.434;2023-09-12T01:16:26;98550.97;;;20.02;70.14
61573;BME280;47465;43.094;12.434;2023-09-12T01:18:52;98561.34;;;19.96;71.11
61573;BME280;47465;43.094;12.434;2023-09-12T01:21:38;98557.03;;;19.93;70.42
61573;BME280;47465;43.094;12.434;2023-09-12T01:24:38;98573.06;;;19.95;70.72
61573;BME280;47465;43.094;12.434;2023-09-12T01:27:19;98556.63;;;19.72;71.68
61573;BME280;47465;43.094;12.434;2023-09-12T01:29:46;98552.47;;;19.66;72.70
61573;BME280;47465;43.094;12.434;2023-09-12T01:32:14;98549.56;;;19.57;72.76
61573;BME280;47465;43.094;12.434;2023-09-12T01:34:40;98553.56;;;19.64;72.52
61573;BME280;47465;43.094;12.434;2023-09-12T01:37:06;98561.06;;;19.73;72.48
61573;BME280;47465;43.094;12.434;2023-09-12T01:39:32;98565.38;;;19.48;73.92
61573;BME280;47465;43.094;12.434;2023-09-12T01:41:59;98564.22;;;19.53;73.48
61573;BME280;47465;43.094;12.434;2023-09-12T01:44:28;98564.63;;;19.46;73.43
61573;BME280;47465;43.094;12.434;2023-09-12T01:46:58;98628.75;;;19.83;74.17
61573;BME280;47465;43.094;12.434;2023-09-12T01:49:27;98580.47;;;19.51;74.52
61573;BME280;47465;43.094;12.434;2023-09-12T01:51:54;98559.13;;;19.21;76.09
61573;BME280;47465;43.094;12.434;2023-09-12T01:54:21;98564.09;;;19.27;76.02
61573;BME280;47465;43.094;12.434;2023-09-12T01:56:48;98554.94;;;19.29;76.01
61573;BME280;47465;43.094;12.434;2023-09-12T01:59:14;98639.28;;;19.73;75.51
61573;BME280;47465;43.094;12.434;2023-09-12T02:01:42;98566.50;;;19.32;75.17
61573;BME280;47465;43.094;12.434;2023-09-12T02:04:08;98644.03;;;19.69;76.04
61573;BME280;47465;43.094;12.434;2023-09-12T02:06:34;98569.81;;;19.22;75.23
61573;BME280;47465;43.094;12.434;2023-09-12T02:09:01;98561.25;;;19.16;76.25
61573;BME280;47465;43.094;12.434;2023-09-12T02:11:27;98555.94;;;18.87;77.94
61573;BME280;47465;43.094;12.434;2023-09-12T02:13:53;98602.28;;;19.06;78.23
61573;BME280;47465;43.094;12.434;2023-09-12T02:16:19;98592.16;;;19.10;78.34
61573;BME280;47465;43.094;12.434;2023-09-12T02:18:46;98557.25;;;18.94;78.23
61573;BME280;47465;43.094;12.434;2023-09-12T02:21:12;98620.66;;;19.14;80.21
61573;BME280;47465;43.094;12.434;2023-09-12T02:23:38;98568.78;;;19.11;78.55
61573;BME280;47465;43.094;12.434;2023-09-12T02:26:04;98605.53;;;19.53;77.61
61573;BME280;47465;43.094;12.434;2023-09-12T02:28:30;98618.66;;;19.45;77.70
61573;BME280;47465;43.094;12.434;2023-09-12T02:30:56;98541.94;;;19.09;77.99
61573;BME280;47465;43.094;12.434;2023-09-12T02:33:22;98556.72;;;19.16;78.54
61573;BME280;47465;43.094;12.434;2023-09-12T02:35:49;98556.63;;;19.18;77.80
61573;BME280;47465;43.094;12.434;2023-09-12T02:38:17;98603.03;;;19.50;77.38
61573;BME280;47465;43.094;12.434;2023-09-12T02:40:43;98553.53;;;19.24;77.31
61573;BME280;47465;43.094;12.434;2023-09-12T02:43:09;98595.41;;;19.57;76.63
61573;BME280;47465;43.094;12.434;2023-09-12T02:45:35;98638.47;;;19.85;76.09
61573;BME280;47465;43.094;12.434;2023-09-12T02:48:01;98571.75;;;19.47;76.47
61573;BME280;47465;43.094;12.434;2023-09-12T02:50:27;98629.63;;;19.69;76.96
61573;BME280;47465;43.094;12.434;2023-09-12T02:52:54;98631.78;;;19.64;77.04
61573;BME280;47465;43.094;12.434;2023-09-12T02:55:20;98612.84;;;19.51;77.42
61573;BME280;47465;43.094;12.434;2023-09-12T02:57:46;98628.03;;;19.39;78.99
61573;BME280;47465;43.094;12.434;2023-09-12T03:00:13;98615.41;;;19.25;78.23
61573;BME280;47465;43.094;12.434;2023-09-12T03:02:39;98612.88;;;19.09;79.19
61573;BME280;47465;43.094;12.434;2023-09-12T03:05:05;98637.88;;;19.12;80.35
61573;BME280;47465;43.094;12.434;2023-09-12T03:07:31;98628.91;;;19.25;79.44
61573;BME280;47465;43.094;12.434;2023-09-12T03:09:58;98609.16;;;19.25;78.87
61573;BME280;47465;43.094;12.434;2023-09-12T03:12:24;98587.75;;;19.09;78.52
61573;BME280;47465;43.094;12.434;2023-09-12T03:14:50;98583.44;;;19.06;79.50
61573;BME280;47465;43.094;12.434;2023-09-12T03:17:16;98621.00;;;19.37;78.72
61573;BME280;47465;43.094;12.434;2023-09-12T03:19:42;98569.06;;;19.06;78.51
61573;BME280;47465;43.094;12.434;2023-09-12T03:22:08;98621.28;;;19.32;78.84
61573;BME280;47465;43.094;12.434;2023-09-12T03:24:34;98566.91;;;18.84;79.72
61573;BME280;47465;43.094;12.434;2023-09-12T03:27:01;98594.13;;;18.94;80.37
61573;BME280;47465;43.094;12.434;2023-09-12T03:29:27;98638.09;;;19.08;81.20
61573;BME280;47465;43.094;12.434;2023-09-12T03:31:53;98580.28;;;18.85;79.50
61573;BME280;47465;43.094;12.434;2023-09-12T03:34:19;98577.16;;;18.77;79.92
61573;BME280;47465;43.094;12.434;2023-09-12T03:36:44;98583.34;;;18.79;80.59
61573;BME280;47465;43.094;12.434;2023-09-12T03:39:10;98628.09;;;18.96;80.92
61573;BME280;47465;43.094;12.434;2023-09-12T03:41:38;98570.94;;;18.48;82.53
61573;BME280;47465;43.094;12.434;2023-09-12T03:44:06;98635.22;;;18.83;82.13
61573;BME280;47465;43.094;12.434;2023-09-12T03:46:32;98612.47;;;18.58;82.44
61573;BME280;47465;43.094;12.434;2023-09-12T03:48:58;98624.31;;;18.41;84.19
61573;BME280;47465;43.094;12.434;2023-09-12T03:51:24;98624.19;;;18.29;85.47
61573;BME280;47465;43.094;12.434;2023-09-12T03:53:50;98580.88;;;18.03;86.14
61573;BME280;47465;43.094;12.434;2023-09-12T03:56:17;98639.19;;;18.47;85.06
61573;BME280;47465;43.094;12.434;2023-09-12T03:58:45;98611.13;;;18.37;84.36
61573;BME280;47465;43.094;12.434;2023-09-12T04:01:12;98651.16;;;18.72;84.55
61573;BME280;47465;43.094;12.434;2023-09-12T04:03:38;98579.16;;;18.16;85.24
61573;BME280;47465;43.094;12.434;2023-09-12T04:06:04;98604.09;;;18.34;85.11
61573;BME280;47465;43.094;12.434;2023-09-12T04:08:30;98642.09;;;18.58;85.08
61573;BME280;47465;43.094;12.434;2023-09-12T04:10:57;98591.84;;;18.14;86.73
61573;BME280;47465;43.094;12.434;2023-09-12T04:13:23;98583.44;;;17.90;87.39
61573;BME280;47465;43.094;12.434;2023-09-12T04:15:49;98616.13;;;17.98;88.34
61573;BME280;47465;43.094;12.434;2023-09-12T04:18:16;98634.34;;;18.23;88.72
61573;BME280;47465;43.094;12.434;2023-09-12T04:20:42;98647.50;;;18.14;88.45
61573;BME280;47465;43.094;12.434;2023-09-12T04:23:08;98651.09;;;18.29;87.31
61573;BME280;47465;43.094;12.434;2023-09-12T04:25:34;98669.97;;;18.43;87.00
61573;BME280;47465;43.094;12.434;2023-09-12T04:28:00;98605.19;;;18.01;87.05
61573;BME280;47465;43.094;12.434;2023-09-12T04:30:26;98653.03;;;18.26;87.06
61573;BME280;47465;43.094;12.434;2023-09-12T04:32:52;98657.78;;;18.21;87.72
61573;BME280;47465;43.094;12.434;2023-09-12T04:35:19;98660.13;;;18.27;87.43
61573;BME280;47465;43.094;12.434;2023-09-12T04:37:46;98648.59;;;18.25;86.54
61573;BME280;47465;43.094;12.434;2023-09-12T04:40:12;98644.09;;;18.26;86.33
61573;BME280;47465;43.094;12.434;2023-09-12T04:42:38;98612.31;;;18.02;86.79
61573;BME280;47465;43.094;12.434;2023-09-12T04:45:04;98605.25;;;18.00;86.85
61573;BME280;47465;43.094;12.434;2023-09-12T04:47:31;98609.47;;;17.90;87.17
61573;BME280;47465;43.094;12.434;2023-09-12T04:49:57;98614.59;;;17.78;88.32
61573;BME280;47465;43.094;12.434;2023-09-12T04:52:25;98599.19;;;17.66;88.38
61573;BME280;47465;43.094;12.434;2023-09-12T04:54:51;98615.25;;;17.68;89.19
61573;BME280;47465;43.094;12.434;2023-09-12T04:57:17;98618.00;;;17.82;88.01
61573;BME280;47465;43.094;12.434;2023-09-12T04:59:43;98666.94;;;18.19;89.22
61573;BME280;47465;43.094;12.434;2023-09-12T05:02:09;98607.22;;;17.82;88.30
61573;BME280;47465;43.094;12.434;2023-09-12T05:04:35;98611.56;;;17.84;88.73
61573;BME280;47465;43.094;12.434;2023-09-12T05:07:01;98625.78;;;17.86;88.58
61573;BME280;47465;43.094;12.434;2023-09-12T05:09:28;98681.78;;;18.26;88.64
61573;BME280;47465;43.094;12.434;2023-09-12T05:11:54;98665.94;;;18.05;89.26
61573;BME280;47465;43.094;12.434;2023-09-12T05:14:20;98669.31;;;18.09;89.68
61573;BME280;47465;43.094;12.434;2023-09-12T05:16:46;98680.94;;;18.10;90.70
61573;BME280;47465;43.094;12.434;2023-09-12T05:19:12;98626.47;;;17.90;89.57
61573;BME280;47465;43.094;12.434;2023-09-12T05:21:38;98619.97;;;17.94;89.65
61573;BME280;47465;43.094;12.434;2023-09-12T05:24:05;98642.81;;;18.17;89.07
61573;BME280;47465;43.094;12.434;2023-09-12T05:26:33;98627.91;;;18.12;88.99
61573;BME280;47465;43.094;12.434;2023-09-12T05:28:59;98655.44;;;18.31;88.88
61573;BME280;47465;43.094;12.434;2023-09-12T05:31:25;98618.59;;;18.17;89.12
61573;BME280;47465;43.094;12.434;2023-09-12T05:33:51;98627.69;;;18.15;88.51
61573;BME280;47465;43.094;12.434;2023-09-12T05:36:18;98635.13;;;18.25;88.34
61573;BME280;47465;43.094;12.434;2023-09-12T05:38:44;98635.81;;;18.29;89.04
61573;BME280;47465;43.094;12.434;2023-09-12T05:41:10;98639.19;;;18.33;88.52
61573;BME280;47465;43.094;12.434;2023-09-12T05:43:38;98632.84;;;18.34;88.61
61573;BME280;47465;43.094;12.434;2023-09-12T05:46:04;98647.38;;;18.60;87.64
61573;BME280;47465;43.094;12.434;2023-09-12T05:48:31;98634.31;;;18.68;86.71
61573;BME280;47465;43.094;12.434;2023-09-12T05:50:57;98642.63;;;18.94;84.78
61573;BME280;47465;43.094;12.434;2023-09-12T05:53:23;98694.38;;;19.27;84.81
61573;BME280;47465;43.094;12.434;2023-09-12T05:55:49;98631.09;;;18.92;84.37
61573;BME280;47465;43.094;12.434;2023-09-12T05:58:16;98634.44;;;19.09;84.08
61573;BME280;47465;43.094;12.434;2023-09-12T06:00:43;98652.59;;;19.35;82.72
61573;BME280;47465;43.094;12.434;2023-09-12T06:03:12;98633.59;;;19.36;82.00
61573;BME280;47465;43.094;12.434;2023-09-12T06:05:38;98631.28;;;19.44;82.26
61573;BME280;47465;43.094;12.434;2023-09-12T06:08:04;98657.22;;;19.60;82.00
61573;BME280;47465;43.094;12.434;2023-09-12T06:10:31;98685.78;;;19.91;81.20
61573;BME280;47465;43.094;12.434;2023-09-12T06:12:57;98637.94;;;19.80;79.95
61573;BME280;47465;43.094;12.434;2023-09-12T06:15:23;98661.63;;;20.02;79.03
61573;BME280;47465;43.094;12.434;2023-09-12T06:17:51;98637.34;;;20.02;78.19
61573;BME280;47465;43.094;12.434;2023-09-12T06:20:18;98633.81;;;20.15;78.22
61573;BME280;47465;43.094;12.434;2023-09-12T06:22:44;98640.19;;;20.26;76.77
61573;BME280;47465;43.094;12.434;2023-09-12T06:25:10;98701.22;;;20.82;76.27
61573;BME280;47465;43.094;12.434;2023-09-12T06:27:36;98675.19;;;20.81;75.36
61573;BME280;47465;43.094;12.434;2023-09-12T06:30:03;98673.75;;;21.01;74.72
61573;BME280;47465;43.094;12.434;2023-09-12T06:32:28;98683.19;;;21.08;74.49
61573;BME280;47465;43.094;12.434;2023-09-12T06:34:56;98691.91;;;21.24;73.47
61573;BME280;47465;43.094;12.434;2023-09-12T06:37:22;98690.72;;;21.16;73.61
61573;BME280;47465;43.094;12.434;2023-09-12T06:39:49;98710.72;;;21.39;73.60
61573;BME280;47465;43.094;12.434;2023-09-12T06:42:16;98675.44;;;21.27;73.10
61573;BME280;47465;43.094;12.434;2023-09-12T06:44:41;98710.88;;;21.61;72.62
61573;BME280;47465;43.094;12.434;2023-09-12T06:47:07;98692.47;;;21.66;71.84
61573;BME280;47465;43.094;12.434;2023-09-12T06:49:34;98708.41;;;21.95;70.45
61573;BME280;47465;43.094;12.434;2023-09-12T06:52:03;98700.09;;;22.09;69.27
61573;BME280;47465;43.094;12.434;2023-09-12T06:54:29;98689.88;;;22.26;68.72
61573;BME280;47465;43.094;12.434;2023-09-12T06:56:55;98716.56;;;22.54;67.05
61573;BME280;47465;43.094;12.434;2023-09-12T06:59:21;98699.28;;;22.44;67.24
61573;BME280;47465;43.094;12.434;2023-09-12T07:01:47;98723.09;;;22.52;67.05
61573;BME280;47465;43.094;12.434;2023-09-12T07:04:13;98706.09;;;22.02;68.33
61573;BME280;47465;43.094;12.434;2023-09-12T07:06:38;98712.56;;;22.36;67.92
61573;BME280;47465;43.094;12.434;2023-09-12T07:09:06;98734.44;;;22.68;66.86
61573;BME280;47465;43.094;12.434;2023-09-12T07:11:33;98749.03;;;21.95;68.63
61573;BME280;47465;43.094;12.434;2023-09-12T07:13:59;98723.38;;;22.12;68.51
61573;BME280;47465;43.094;12.434;2023-09-12T07:16:25;98694.47;;;22.12;67.16
61573;BME280;47465;43.094;12.434;2023-09-12T07:18:51;98727.53;;;22.29;66.36
61573;BME280;47465;43.094;12.434;2023-09-12T07:21:17;98698.28;;;22.34;66.46
61573;BME280;47465;43.094;12.434;2023-09-12T07:23:43;98705.53;;;22.69;65.53
61573;BME280;47465;43.094;12.434;2023-09-12T07:26:13;98744.94;;;23.20;63.76
61573;BME280;47465;43.094;12.434;2023-09-12T07:28:40;98755.94;;;23.41;62.89
61573;BME280;47465;43.094;12.434;2023-09-12T07:31:06;98755.56;;;23.68;61.34
61573;BME280;47465;43.094;12.434;2023-09-12T07:33:33;98751.38;;;23.75;60.87
61573;BME280;47465;43.094;12.434;2023-09-12T07:35:59;98709.91;;;23.73;60.30
61573;BME280;47465;43.094;12.434;2023-09-12T07:38:26;98726.44;;;23.92;60.23
61573;BME280;47465;43.094;12.434;2023-09-12T07:40:52;98703.25;;;23.77;58.98
61573;BME280;47465;43.094;12.434;2023-09-12T07:43:21;98770.56;;;24.17;59.69
61573;BME280;47465;43.094;12.434;2023-09-12T07:45:47;98752.34;;;24.29;59.28
61573;BME280;47465;43.094;12.434;2023-09-12T07:48:14;98692.63;;;24.17;57.81
61573;BME280;47465;43.094;12.434;2023-09-12T07:50:41;98717.88;;;24.40;57.92
61573;BME280;47465;43.094;12.434;2023-09-12T07:53:08;98783.75;;;24.65;57.47
61573;BME280;47465;43.094;12.434;2023-09-12T07:55:36;98722.91;;;24.45;56.65
61573;BME280;47465;43.094;12.434;2023-09-12T07:58:10;98767.22;;;24.68;57.52
61573;BME280;47465;43.094;12.434;2023-09-12T08:00:38;98712.81;;;24.68;57.13
61573;BME280;47465;43.094;12.434;2023-09-12T08:03:04;98711.75;;;24.80;55.64
61573;BME280;47465;43.094;12.434;2023-09-12T08:05:30;98711.69;;;24.92;54.62
61573;BME280;47465;43.094;12.434;2023-09-12T08:07:57;98740.69;;;24.82;55.02
61573;BME280;47465;43.094;12.434;2023-09-12T08:10:23;98723.28;;;24.94;54.34
61573;BME280;47465;43.094;12.434;2023-09-12T08:12:49;98784.06;;;25.46;53.13
61573;BME280;47465;43.094;12.434;2023-09-12T08:15:15;98729.03;;;25.52;53.57
61573;BME280;47465;43.094;12.434;2023-09-12T08:17:42;98753.88;;;25.90;52.90
61573;BME280;47465;43.094;12.434;2023-09-12T08:20:09;98770.25;;;25.99;51.43
61573;BME280;47465;43.094;12.434;2023-09-12T08:22:35;98709.06;;;25.82;51.26
61573;BME280;47465;43.094;12.434;2023-09-12T08:25:01;98747.59;;;26.09;51.98
61573;BME280;47465;43.094;12.434;2023-09-12T08:27:27;98731.75;;;25.83;50.65
61573;BME280;47465;43.094;12.434;2023-09-12T08:29:54;98736.25;;;26.03;51.33
61573;BME280;47465;43.094;12.434;2023-09-12T08:32:20;98709.91;;;25.73;51.68
61573;BME280;47465;43.094;12.434;2023-09-12T08:34:51;98763.25;;;26.16;51.58
61573;BME280;47465;43.094;12.434;2023-09-12T08:37:17;98732.97;;;26.10;51.84
61573;BME280;47465;43.094;12.434;2023-09-12T08:39:44;98735.56;;;26.21;50.00
61573;BME280;47465;43.094;12.434;2023-09-12T08:42:12;98739.16;;;26.41;49.51
61573;BME280;47465;43.094;12.434;2023-09-12T08:44:39;98728.09;;;26.52;48.97
61573;BME280;47465;43.094;12.434;2023-09-12T08:47:07;98736.47;;;26.70;48.69
61573;BME280;47465;43.094;12.434;2023-09-12T08:49:35;98720.25;;;26.78;49.91
61573;BME280;47465;43.094;12.434;2023-09-12T08:52:03;98725.13;;;26.75;48.38
61573;BME280;47465;43.094;12.434;2023-09-12T08:54:29;98763.44;;;26.54;48.13
61573;BME280;47465;43.094;12.434;2023-09-12T08:56:55;98746.94;;;26.84;47.79
61573;BME280;47465;43.094;12.434;2023-09-12T08:59:22;98730.25;;;27.07;48.23
61573;BME280;47465;43.094;12.434;2023-09-12T09:01:49;98722.00;;;27.17;46.72
61573;BME280;47465;43.094;12.434;2023-09-12T09:04:19;98777.53;;;26.98;46.74
61573;BME280;47465;43.094;12.434;2023-09-12T09:06:46;98722.38;;;26.55;46.79
61573;BME280;47465;43.094;12.434;2023-09-12T09:09:15;98782.53;;;26.44;47.67
61573;BME280;47465;43.094;12.434;2023-09-12T09:11:42;98717.78;;;26.75;46.85
61573;BME280;47465;43.094;12.434;2023-09-12T09:14:08;98720.03;;;27.09;45.51
61573;BME280;47465;43.094;12.434;2023-09-12T09:16:35;98724.38;;;26.92;44.19
61573;BME280;47465;43.094;12.434;2023-09-12T09:19:02;98762.25;;;27.72;44.28
61573;BME280;47465;43.094;12.434;2023-09-12T09:21:32;98734.53;;;27.10;43.60
61573;BME280;47465;43.094;12.434;2023-09-12T09:24:00;98735.41;;;27.10;44.66
61573;BME280;47465;43.094;12.434;2023-09-12T09:26:41;98729.13;;;27.47;44.62
61573;BME280;47465;43.094;12.434;2023-09-12T09:29:09;98733.97;;;27.63;44.34
61573;BME280;47465;43.094;12.434;2023-09-12T09:31:40;98743.44;;;27.96;42.88
61573;BME280;47465;43.094;12.434;2023-09-12T09:34:10;98728.38;;;27.92;43.73
61573;BME280;47465;43.094;12.434;2023-09-12T09:36:41;98727.06;;;28.14;42.70
61573;BME280;47465;43.094;12.434;2023-09-12T09:39:08;98759.97;;;28.50;42.09
61573;BME280;47465;43.094;12.434;2023-09-12T09:41:36;98786.06;;;28.80;41.94
61573;BME280;47465;43.094;12.434;2023-09-12T09:44:02;98752.59;;;28.86;41.48
61573;BME280;47465;43.094;12.434;2023-09-12T09:46:30;98731.31;;;28.80;40.87
61573;BME280;47465;43.094;12.434;2023-09-12T09:48:55;98774.56;;;28.77;40.77
61573;BME280;47465;43.094;12.434;2023-09-12T09:51:21;98787.13;;;28.52;40.40
61573;BME280;47465;43.094;12.434;2023-09-12T09:53:51;98780.44;;;28.64;39.42
61573;BME280;47465;43.094;12.434;2023-09-12T09:56:17;98789.78;;;28.97;40.18
61573;BME280;47465;43.094;12.434;2023-09-12T09:58:47;98763.78;;;28.57;40.79
61573;BME280;47465;43.094;12.434;2023-09-12T10:01:17;98761.16;;;28.38;40.87
61573;BME280;47465;43.094;12.434;2023-09-12T10:03:45;98765.06;;;28.35;41.20
61573;BME280;47465;43.094;12.434;2023-09-12T10:06:15;98738.44;;;28.55;41.48
61573;BME280;47465;43.094;12.434;2023-09-12T10:08:42;98741.47;;;28.88;40.74
61573;BME280;47465;43.094;12.434;2023-09-12T10:11:11;98770.84;;;29.22;40.14
61573;BME280;47465;43.094;12.434;2023-09-12T10:13:38;98721.00;;;29.18;40.28
61573;BME280;47465;43.094;12.434;2023-09-12T10:16:09;98749.22;;;29.37;39.24
61573;BME280;47465;43.094;12.434;2023-09-12T10:18:41;98721.75;;;29.28;38.47
61573;BME280;47465;43.094;12.434;2023-09-12T10:21:14;98692.72;;;29.10;38.32
61573;BME280;47465;43.094;12.434;2023-09-12T10:23:44;98691.53;;;29.12;38.33
61573;BME280;47465;43.094;12.434;2023-09-12T10:26:11;98688.41;;;29.33;37.18
61573;BME280;47465;43.094;12.434;2023-09-12T10:28:40;98680.88;;;29.35;36.46
61573;BME280;47465;43.094;12.434;2023-09-12T10:31:08;98692.00;;;29.34;37.67
61573;BME280;47465;43.094;12.434;2023-09-12T10:33:36;98702.47;;;29.38;36.55
61573;BME280;47465;43.094;12.434;2023-09-12T10:36:03;98694.06;;;28.61;37.30
61573;BME280;47465;43.094;12.434;2023-09-12T10:38:30;98719.44;;;29.16;35.16
61573;BME280;47465;43.094;12.434;2023-09-12T10:41:00;98727.59;;;29.34;37.26
61573;BME280;47465;43.094;12.434;2023-09-12T10:43:27;98738.97;;;29.47;37.67
61573;BME280;47465;43.094;12.434;2023-09-12T10:45:54;98717.19;;;29.37;37.61
61573;BME280;47465;43.094;12.434;2023-09-12T10:48:24;98726.75;;;29.67;36.63
61573;BME280;47465;43.094;12.434;2023-09-12T10:50:50;98712.00;;;29.60;36.89
61573;BME280;47465;43.094;12.434;2023-09-12T10:53:16;98686.06;;;29.46;36.57
61573;BME280;47465;43.094;12.434;2023-09-12T10:55:58;98702.75;;;29.61;37.39
61573;BME280;47465;43.094;12.434;2023-09-12T10:58:23;98727.41;;;29.61;37.20
61573;BME280;47465;43.094;12.434;2023-09-12T11:01:22;98732.19;;;29.59;37.33
61573;BME280;47465;43.094;12.434;2023-09-12T11:03:52;98707.66;;;29.76;38.10
61573;BME280;47465;43.094;12.434;2023-09-12T11:06:21;98675.19;;;29.63;37.38
61573;BME280;47465;43.094;12.434;2023-09-12T11:09:18;98694.31;;;29.89;37.67
61573;BME280;47465;43.094;12.434;2023-09-12T11:11:46;98709.03;;;29.80;37.85
61573;BME280;47465;43.094;12.434;2023-09-12T11:14:12;98695.44;;;29.36;38.33
61573;BME280;47465;43.094;12.434;2023-09-12T11:16:38;98696.03;;;29.56;37.71
61573;BME280;47465;43.094;12.434;2023-09-12T11:19:16;98703.75;;;29.86;36.24
61573;BME280;47465;43.094;12.434;2023-09-12T11:21:44;98691.63;;;29.97;36.82
61573;BME280;47465;43.094;12.434;2023-09-12T11:24:10;98710.34;;;30.26;35.92
61573;BME280;47465;43.094;12.434;2023-09-12T11:26:52;98695.41;;;30.13;36.49
61573;BME280;47465;43.094;12.434;2023-09-12T11:29:19;98664.69;;;30.01;36.24
61573;BME280;47465;43.094;12.434;2023-09-12T11:31:53;98717.25;;;30.55;35.39
61573;BME280;47465;43.094;12.434;2023-09-12T11:34:20;98663.44;;;29.79;36.34
61573;BME280;47465;43.094;12.434;2023-09-12T11:36:46;98670.66;;;29.88;35.97
61573;BME280;47465;43.094;12.434;2023-09-12T11:39:22;98705.91;;;30.25;36.18
61573;BME280;47465;43.094;12.434;2023-09-12T11:41:50;98683.25;;;30.23;35.85
61573;BME280;47465;43.094;12.434;2023-09-12T11:44:17;98682.97;;;30.35;34.71
61573;BME280;47465;43.094;12.434;2023-09-12T11:46:47;98699.84;;;30.14;35.01
61573;BME280;47465;43.094;12.434;2023-09-12T11:49:14;98675.88;;;30.24;34.99
61573;BME280;47465;43.094;12.434;2023-09-12T11:51:47;98673.38;;;30.39;34.94
61573;BME280;47465;43.094;12.434;2023-09-12T11:54:15;98649.53;;;30.39;34.56
61573;BME280;47465;43.094;12.434;2023-09-12T11:56:41;98656.03;;;30.46;35.11
61573;BME280;47465;43.094;12.434;2023-09-12T11:59:09;98683.97;;;30.83;34.15
61573;BME280;47465;43.094;12.434;2023-09-12T12:01:35;98663.41;;;30.54;34.36
61573;BME280;47465;43.094;12.434;2023-09-12T12:04:01;98631.16;;;30.32;33.97
61573;BME280;47465;43.094;12.434;2023-09-12T12:06:28;98645.91;;;30.47;33.15
61573;BME280;47465;43.094;12.434;2023-09-12T12:08:58;98625.31;;;30.59;33.61
61573;BME280;47465;43.094;12.434;2023-09-12T12:11:27;98662.53;;;31.03;33.32
61573;BME280;47465;43.094;12.434;2023-09-12T12:13:53;98642.44;;;30.12;33.63
61573;BME280;47465;43.094;12.434;2023-09-12T12:16:19;98670.38;;;30.16;34.40
61573;BME280;47465;43.094;12.434;2023-09-12T12:18:45;98611.56;;;29.85;33.42
61573;BME280;47465;43.094;12.434;2023-09-12T12:21:11;98652.09;;;30.33;34.33
61573;BME280;47465;43.094;12.434;2023-09-12T12:23:37;98651.91;;;30.59;33.28
61573;BME280;47465;43.094;12.434;2023-09-12T12:26:07;98653.28;;;30.87;34.27
61573;BME280;47465;43.094;12.434;2023-09-12T12:28:33;98624.81;;;30.88;33.16
61573;BME280;47465;43.094;12.434;2023-09-12T12:31:00;98649.28;;;31.15;32.85
61573;BME280;47465;43.094;12.434;2023-09-12T12:33:27;98628.69;;;31.10;33.29
61573;BME280;47465;43.094;12.434;2023-09-12T12:35:59;98642.00;;;31.38;32.19
61573;BME280;47465;43.094;12.434;2023-09-12T12:38:25;98617.19;;;31.15;32.09
61573;BME280;47465;43.094;12.434;2023-09-12T12:40:51;98638.44;;;31.29;31.27
61573;BME280;47465;43.094;12.434;2023-09-12T12:43:19;98653.75;;;31.63;31.55
61573;BME280;47465;43.094;12.434;2023-09-12T12:45:56;98645.09;;;31.75;31.49
61573;BME280;47465;43.094;12.434;2023-09-12T12:48:31;98643.13;;;31.60;31.43
61573;BME280;47465;43.094;12.434;2023-09-12T12:51:00;98642.44;;;31.66;31.72